Skip Navigation LinksHome page > Weather > Current weather Skip Navigation Links

Current Weather

Metropolitan Oakland Intl, Oakland, Calif.

For information only: do not use for flight planning or navigation.
Latest weather
Observation time Monday, January 25, 2021 10:53 AM PST
Local time Monday, January 25, 2021 11:53 AM PST
Flight conditions Visual Meteorological Conditions
Winds
Wind direction North-Northwest (330°)
Wind speed 13 mph
Visibility 10 mi.
Sky condition
Ceiling unlimited
Cloud layer few clouds 1,000 ft.
Cloud layer few clouds 4,000 ft.
Cloud layer scattered clouds 6,000 ft.
Temperature 53°F
Dewpoint 30°F
Altimeter 29.88 in.Hg
Derived measurements
Relative humidity 41%
Density altitude -251 ft.
Sea-level pressure 29.88 in.Hg
Remarks
Automated weather observing station with precipitation discriminator.
Cumulonimbus clouds observed distant west.
METAR KOAK 251853Z 33011KT 10SM FEW010 FEW040 SCT060 12/M01 A2988 RMK AO2 SLP117 CB DSNT W T01171011

Settings

Location code

InnerDrive.Weather 4.0.6770.0 Release CLR 4.0.30319.42000
Copyright ©2018 Inner Drive Technology. All rights reserved. Portions Copyright ©1986-2018 David Braverman.

Find weather

Site navigation


Skip Navigation Links

Place info

Page info

PayPal - The safer, easier way to pay online!

Return home.

Copyright ©2021 Inner Drive Technology. Purveyors of fine, hand-crafted computer software. Page printed 2021-01-25T19:53:23 UTC.